sensor_id;sensor_type;location;lat;lon;timestamp;P1;durP1;ratioP1;P2;durP2;ratioP2
26177;SDS011;13924;47.670;10.310;2024-01-16T00:00:38;10.4;;;4.8;;
26177;SDS011;13924;47.670;10.310;2024-01-16T00:15:38;7.9;;;4.6;;
26177;SDS011;13924;47.670;10.310;2024-01-16T00:30:39;7.6;;;4.5;;
26177;SDS011;13924;47.670;10.310;2024-01-16T00:45:39;7.1;;;4.1;;
26177;SDS011;13924;47.670;10.310;2024-01-16T01:00:40;7.9;;;4.8;;
26177;SDS011;13924;47.670;10.310;2024-01-16T01:15:42;7.8;;;3.9;;
26177;SDS011;13924;47.670;10.310;2024-01-16T01:30:42;6.5;;;3.9;;
26177;SDS011;13924;47.670;10.310;2024-01-16T01:45:43;6.5;;;3.5;;
26177;SDS011;13924;47.670;10.310;2024-01-16T02:00:43;6.8;;;4.0;;
26177;SDS011;13924;47.670;10.310;2024-01-16T02:01:33;8.7;;;4.6;;
26177;SDS011;13924;47.670;10.310;2024-01-16T02:15:44;8.9;;;4.6;;
26177;SDS011;13924;47.670;10.310;2024-01-16T02:30:45;7.9;;;4.4;;
26177;SDS011;13924;47.670;10.310;2024-01-16T02:45:46;10.9;;;5.5;;
26177;SDS011;13924;47.670;10.310;2024-01-16T03:00:46;8.9;;;5.0;;
26177;SDS011;13924;47.670;10.310;2024-01-16T03:15:47;11.3;;;4.8;;
26177;SDS011;13924;47.670;10.310;2024-01-16T03:30:48;11.1;;;5.5;;
26177;SDS011;13924;47.670;10.310;2024-01-16T03:45:49;10.8;;;5.9;;
26177;SDS011;13924;47.670;10.310;2024-01-16T04:00:49;9.4;;;5.0;;
26177;SDS011;13924;47.670;10.310;2024-01-16T04:15:50;10.7;;;5.7;;
26177;SDS011;13924;47.670;10.310;2024-01-16T04:30:50;12.1;;;6.0;;
26177;SDS011;13924;47.670;10.310;2024-01-16T04:45:51;9.8;;;6.0;;
26177;SDS011;13924;47.670;10.310;2024-01-16T05:00:51;14.6;;;6.3;;
26177;SDS011;13924;47.670;10.310;2024-01-16T05:15:53;16.1;;;7.4;;
26177;SDS011;13924;47.670;10.310;2024-01-16T05:30:55;14.4;;;7.0;;
26177;SDS011;13924;47.670;10.310;2024-01-16T05:45:53;10.3;;;6.1;;
26177;SDS011;13924;47.670;10.310;2024-01-16T06:00:54;17.4;;;9.7;;
26177;SDS011;13924;47.670;10.310;2024-01-16T06:15:55;16.8;;;8.1;;
26177;SDS011;13924;47.670;10.310;2024-01-16T06:30:56;15.5;;;7.9;;
26177;SDS011;13924;47.670;10.310;2024-01-16T06:45:57;12.9;;;7.7;;
26177;SDS011;13924;47.670;10.310;2024-01-16T06:50:16;15.2;;;8.2;;
26177;SDS011;13924;47.670;10.310;2024-01-16T07:05:07;16.6;;;8.7;;
26177;SDS011;13924;47.670;10.310;2024-01-16T07:20:08;21.9;;;10.4;;
26177;SDS011;13924;47.670;10.310;2024-01-16T07:35:08;18.9;;;9.2;;
26177;SDS011;13924;47.670;10.310;2024-01-16T07:50:09;19.6;;;12.4;;
26177;SDS011;13924;47.670;10.310;2024-01-16T08:05:09;20.7;;;9.6;;
26177;SDS011;13924;47.670;10.310;2024-01-16T08:20:19;59.5;;;20.6;;
26177;SDS011;13924;47.670;10.310;2024-01-16T08:35:18;19.6;;;10.6;;
26177;SDS011;13924;47.670;10.310;2024-01-16T08:50:21;15.9;;;8.7;;
26177;SDS011;13924;47.670;10.310;2024-01-16T09:05:18;22.0;;;10.2;;
26177;SDS011;13924;47.670;10.310;2024-01-16T09:20:20;23.0;;;10.8;;
26177;SDS011;13924;47.670;10.310;2024-01-16T09:35:19;21.1;;;10.4;;
26177;SDS011;13924;47.670;10.310;2024-01-16T09:50:20;42.4;;;17.7;;
26177;SDS011;13924;47.670;10.310;2024-01-16T10:05:18;17.5;;;9.7;;
26177;SDS011;13924;47.670;10.310;2024-01-16T10:20:31;16.7;;;8.9;;
26177;SDS011;13924;47.670;10.310;2024-01-16T10:35:19;19.7;;;10.2;;
26177;SDS011;13924;47.670;10.310;2024-01-16T10:50:23;17.1;;;10.3;;
26177;SDS011;13924;47.670;10.310;2024-01-16T11:05:20;12.6;;;8.9;;
26177;SDS011;13924;47.670;10.310;2024-01-16T11:20:23;15.7;;;9.6;;
26177;SDS011;13924;47.670;10.310;2024-01-16T11:35:24;13.7;;;8.7;;
26177;SDS011;13924;47.670;10.310;2024-01-16T11:50:27;12.8;;;8.6;;
26177;SDS011;13924;47.670;10.310;2024-01-16T12:05:21;14.9;;;9.2;;
26177;SDS011;13924;47.670;10.310;2024-01-16T12:20:23;12.2;;;8.6;;
26177;SDS011;13924;47.670;10.310;2024-01-16T12:35:22;10.9;;;8.5;;
26177;SDS011;13924;47.670;10.310;2024-01-16T12:50:25;12.8;;;8.8;;
26177;SDS011;13924;47.670;10.310;2024-01-16T13:05:23;9.2;;;6.9;;
26177;SDS011;13924;47.670;10.310;2024-01-16T13:20:25;11.4;;;7.7;;
26177;SDS011;13924;47.670;10.310;2024-01-16T13:35:24;8.4;;;7.3;;
26177;SDS011;13924;47.670;10.310;2024-01-16T13:50:26;9.7;;;7.0;;
26177;SDS011;13924;47.670;10.310;2024-01-16T14:05:26;13.5;;;7.0;;
26177;SDS011;13924;47.670;10.310;2024-01-16T14:20:27;13.1;;;7.1;;
26177;SDS011;13924;47.670;10.310;2024-01-16T14:35:27;11.4;;;7.4;;
26177;SDS011;13924;47.670;10.310;2024-01-16T14:50:28;13.3;;;8.2;;
26177;SDS011;13924;47.670;10.310;2024-01-16T15:05:28;11.8;;;7.2;;
26177;SDS011;13924;47.670;10.310;2024-01-16T15:20:29;14.9;;;7.9;;
26177;SDS011;13924;47.670;10.310;2024-01-16T15:35:30;13.4;;;9.2;;
26177;SDS011;13924;47.670;10.310;2024-01-16T15:50:31;20.3;;;9.6;;
26177;SDS011;13924;47.670;10.310;2024-01-16T16:05:31;47.3;;;18.5;;
26177;SDS011;13924;47.670;10.310;2024-01-16T16:20:32;41.9;;;18.0;;
26177;SDS011;13924;47.670;10.310;2024-01-16T16:35:32;42.6;;;16.2;;
26177;SDS011;13924;47.670;10.310;2024-01-16T16:50:33;69.6;;;26.6;;
26177;SDS011;13924;47.670;10.310;2024-01-16T17:05:34;31.0;;;14.6;;
26177;SDS011;13924;47.670;10.310;2024-01-16T17:20:34;25.2;;;10.5;;
26177;SDS011;13924;47.670;10.310;2024-01-16T17:35:35;25.6;;;11.7;;
26177;SDS011;13924;47.670;10.310;2024-01-16T17:50:36;34.2;;;16.7;;
26177;SDS011;13924;47.670;10.310;2024-01-16T18:05:37;36.7;;;16.1;;
26177;SDS011;13924;47.670;10.310;2024-01-16T18:20:40;33.4;;;17.6;;
26177;SDS011;13924;47.670;10.310;2024-01-16T18:35:38;22.9;;;11.4;;
26177;SDS011;13924;47.670;10.310;2024-01-16T18:50:38;44.1;;;18.6;;
26177;SDS011;13924;47.670;10.310;2024-01-16T19:05:39;57.8;;;24.1;;
26177;SDS011;13924;47.670;10.310;2024-01-16T19:20:40;66.0;;;24.4;;
26177;SDS011;13924;47.670;10.310;2024-01-16T19:35:41;32.6;;;16.4;;
26177;SDS011;13924;47.670;10.310;2024-01-16T19:50:42;31.9;;;15.3;;
26177;SDS011;13924;47.670;10.310;2024-01-16T20:05:41;31.2;;;13.4;;
26177;SDS011;13924;47.670;10.310;2024-01-16T20:20:42;25.1;;;13.2;;
26177;SDS011;13924;47.670;10.310;2024-01-16T20:35:44;33.6;;;16.3;;
26177;SDS011;13924;47.670;10.310;2024-01-16T20:50:44;39.8;;;15.0;;
26177;SDS011;13924;47.670;10.310;2024-01-16T21:05:45;37.3;;;15.4;;
26177;SDS011;13924;47.670;10.310;2024-01-16T21:20:45;39.6;;;13.6;;
26177;SDS011;13924;47.670;10.310;2024-01-16T21:35:45;17.2;;;9.2;;
26177;SDS011;13924;47.670;10.310;2024-01-16T21:50:47;15.1;;;9.4;;
26177;SDS011;13924;47.670;10.310;2024-01-16T22:05:47;17.2;;;9.3;;
26177;SDS011;13924;47.670;10.310;2024-01-16T22:20:48;15.2;;;7.5;;
26177;SDS011;13924;47.670;10.310;2024-01-16T22:35:49;12.5;;;7.6;;
26177;SDS011;13924;47.670;10.310;2024-01-16T22:50:50;15.3;;;8.6;;
26177;SDS011;13924;47.670;10.310;2024-01-16T23:00:44;12.1;;;7.5;;
26177;SDS011;13924;47.670;10.310;2024-01-16T23:15:40;8.2;;;4.8;;
26177;SDS011;13924;47.670;10.310;2024-01-16T23:30:43;10.3;;;7.4;;
26177;SDS011;13924;47.670;10.310;2024-01-16T23:45:43;8.1;;;6.0;;
